sensor_id;sensor_type;location;lat;lon;timestamp;pressure;altitude;pressure_sealevel;temperature;humidity
30516;BME280;17297;54.022;10.760;2023-04-01T00:00:31;99581.84;;;10.11;74.43
30516;BME280;17297;54.022;10.760;2023-04-01T00:02:57;99579.16;;;10.11;74.48
30516;BME280;17297;54.022;10.760;2023-04-01T00:05:22;99576.53;;;10.04;74.96
30516;BME280;17297;54.022;10.760;2023-04-01T00:07:49;99581.94;;;9.98;75.29
30516;BME280;17297;54.022;10.760;2023-04-01T00:10:16;99574.97;;;9.90;75.67
30516;BME280;17297;54.022;10.760;2023-04-01T00:12:41;99584.69;;;9.84;76.13
30516;BME280;17297;54.022;10.760;2023-04-01T00:15:08;99578.16;;;9.74;76.50
30516;BME280;17297;54.022;10.760;2023-04-01T00:17:34;99586.28;;;9.67;76.84
30516;BME280;17297;54.022;10.760;2023-04-01T00:20:00;99574.53;;;9.61;77.18
30516;BME280;17297;54.022;10.760;2023-04-01T00:22:26;99578.06;;;9.55;77.27
30516;BME280;17297;54.022;10.760;2023-04-01T00:24:52;99589.06;;;9.47;77.76
30516;BME280;17297;54.022;10.760;2023-04-01T00:27:18;99591.75;;;9.40;78.18
30516;BME280;17297;54.022;10.760;2023-04-01T00:29:47;99588.25;;;9.40;78.49
30516;BME280;17297;54.022;10.760;2023-04-01T00:32:13;99586.44;;;9.34;78.71
30516;BME280;17297;54.022;10.760;2023-04-01T00:34:38;99586.25;;;9.29;79.20
30516;BME280;17297;54.022;10.760;2023-04-01T00:37:05;99590.78;;;9.35;79.06
30516;BME280;17297;54.022;10.760;2023-04-01T00:39:31;99591.19;;;9.25;79.00
30516;BME280;17297;54.022;10.760;2023-04-01T00:41:58;99597.41;;;9.19;79.15
30516;BME280;17297;54.022;10.760;2023-04-01T00:44:29;99594.72;;;9.19;79.12
30516;BME280;17297;54.022;10.760;2023-04-01T00:46:56;99592.31;;;9.11;79.50
30516;BME280;17297;54.022;10.760;2023-04-01T00:49:25;99584.66;;;9.14;79.21
30516;BME280;17297;54.022;10.760;2023-04-01T00:51:54;99603.22;;;9.09;79.31
30516;BME280;17297;54.022;10.760;2023-04-01T00:54:23;99589.22;;;9.07;79.47
30516;BME280;17297;54.022;10.760;2023-04-01T00:57:01;99589.66;;;9.04;79.82
30516;BME280;17297;54.022;10.760;2023-04-01T00:59:30;99590.88;;;9.01;79.70
30516;BME280;17297;54.022;10.760;2023-04-01T01:01:57;99592.13;;;8.99;79.77
30516;BME280;17297;54.022;10.760;2023-04-01T01:04:25;99598.72;;;8.96;80.10
30516;BME280;17297;54.022;10.760;2023-04-01T01:24:04;99603.09;;;8.84;80.11
30516;BME280;17297;54.022;10.760;2023-04-01T01:26:46;99609.94;;;8.73;80.38
30516;BME280;17297;54.022;10.760;2023-04-01T01:29:29;99608.06;;;8.67;80.72
30516;BME280;17297;54.022;10.760;2023-04-01T01:35:16;99612.81;;;8.65;80.48
30516;BME280;17297;54.022;10.760;2023-04-01T01:37:46;99633.25;;;8.66;80.31
30516;BME280;17297;54.022;10.760;2023-04-01T01:40:15;99614.47;;;8.60;80.39
30516;BME280;17297;54.022;10.760;2023-04-01T01:42:46;99630.13;;;8.63;80.55
30516;BME280;17297;54.022;10.760;2023-04-01T01:45:14;99623.53;;;8.65;80.27
30516;BME280;17297;54.022;10.760;2023-04-01T01:47:44;99628.69;;;8.67;80.65
30516;BME280;17297;54.022;10.760;2023-04-01T01:50:11;99635.69;;;8.68;80.56
30516;BME280;17297;54.022;10.760;2023-04-01T01:52:37;99639.84;;;8.70;80.52
30516;BME280;17297;54.022;10.760;2023-04-01T01:55:24;99644.16;;;8.65;80.72
30516;BME280;17297;54.022;10.760;2023-04-01T01:57:51;99627.66;;;8.61;80.85
30516;BME280;17297;54.022;10.760;2023-04-01T02:00:17;99639.84;;;8.70;80.53
30516;BME280;17297;54.022;10.760;2023-04-01T02:02:46;99627.03;;;8.66;80.48
30516;BME280;17297;54.022;10.760;2023-04-01T02:05:17;99647.88;;;8.70;80.37
30516;BME280;17297;54.022;10.760;2023-04-01T02:07:48;99644.38;;;8.63;80.67
30516;BME280;17297;54.022;10.760;2023-04-01T02:10:14;99650.16;;;8.60;80.69
30516;BME280;17297;54.022;10.760;2023-04-01T02:12:42;99652.44;;;8.63;80.46
30516;BME280;17297;54.022;10.760;2023-04-01T02:15:13;99654.25;;;8.63;80.45
30516;BME280;17297;54.022;10.760;2023-04-01T02:17:43;99672.22;;;8.62;80.47
30516;BME280;17297;54.022;10.760;2023-04-01T02:20:19;99658.19;;;8.60;80.37
30516;BME280;17297;54.022;10.760;2023-04-01T02:22:50;99662.31;;;8.63;80.33
30516;BME280;17297;54.022;10.760;2023-04-01T02:25:23;99656.13;;;8.62;80.16
30516;BME280;17297;54.022;10.760;2023-04-01T02:27:51;99669.34;;;8.64;80.13
30516;BME280;17297;54.022;10.760;2023-04-01T02:30:18;99673.84;;;8.56;80.21
30516;BME280;17297;54.022;10.760;2023-04-01T02:32:44;99685.59;;;8.55;80.26
30516;BME280;17297;54.022;10.760;2023-04-01T02:35:13;99685.19;;;8.59;80.00
30516;BME280;17297;54.022;10.760;2023-04-01T02:37:43;99690.56;;;8.52;80.15
30516;BME280;17297;54.022;10.760;2023-04-01T02:40:12;99697.97;;;8.50;79.97
30516;BME280;17297;54.022;10.760;2023-04-01T02:42:38;99700.25;;;8.53;79.87
30516;BME280;17297;54.022;10.760;2023-04-01T02:45:04;99704.78;;;8.52;79.80
30516;BME280;17297;54.022;10.760;2023-04-01T02:47:30;99714.50;;;8.60;79.48
30516;BME280;17297;54.022;10.760;2023-04-01T02:49:56;99719.44;;;8.63;79.51
30516;BME280;17297;54.022;10.760;2023-04-01T02:52:32;99728.09;;;8.59;79.55
30516;BME280;17297;54.022;10.760;2023-04-01T02:55:00;99720.28;;;8.57;79.62
30516;BME280;17297;54.022;10.760;2023-04-01T02:57:26;99723.53;;;8.52;79.64
30516;BME280;17297;54.022;10.760;2023-04-01T02:59:51;99736.53;;;8.49;79.59
30516;BME280;17297;54.022;10.760;2023-04-01T03:02:17;99729.31;;;8.49;79.56
30516;BME280;17297;54.022;10.760;2023-04-01T03:04:43;99733.66;;;8.57;79.24
30516;BME280;17297;54.022;10.760;2023-04-01T03:07:09;99738.41;;;8.48;79.41
30516;BME280;17297;54.022;10.760;2023-04-01T03:09:38;99736.53;;;8.49;79.32
30516;BME280;17297;54.022;10.760;2023-04-01T03:12:03;99741.72;;;8.50;79.36
30516;BME280;17297;54.022;10.760;2023-04-01T03:14:33;99742.94;;;8.48;79.43
30516;BME280;17297;54.022;10.760;2023-04-01T03:16:58;99752.75;;;8.34;79.86
30516;BME280;17297;54.022;10.760;2023-04-01T03:19:23;99751.91;;;8.27;79.80
30516;BME280;17297;54.022;10.760;2023-04-01T03:21:49;99759.75;;;8.28;79.72
30516;BME280;17297;54.022;10.760;2023-04-01T03:24:15;99765.72;;;8.24;80.06
30516;BME280;17297;54.022;10.760;2023-04-01T03:26:40;99750.88;;;8.21;80.00
30516;BME280;17297;54.022;10.760;2023-04-01T03:29:07;99765.50;;;8.19;80.05
30516;BME280;17297;54.022;10.760;2023-04-01T03:31:33;99753.28;;;8.09;80.21
30516;BME280;17297;54.022;10.760;2023-04-01T03:33:59;99766.50;;;8.04;80.28
30516;BME280;17297;54.022;10.760;2023-04-01T03:36:24;99769.75;;;8.00;80.43
30516;BME280;17297;54.022;10.760;2023-04-01T03:38:50;99781.91;;;7.96;80.50
30516;BME280;17297;54.022;10.760;2023-04-01T03:41:22;99784.75;;;7.94;80.74
30516;BME280;17297;54.022;10.760;2023-04-01T03:43:48;99785.41;;;7.96;80.42
30516;BME280;17297;54.022;10.760;2023-04-01T03:46:18;99796.31;;;7.95;80.61
30516;BME280;17297;54.022;10.760;2023-04-01T03:48:43;99797.97;;;7.96;80.49
30516;BME280;17297;54.022;10.760;2023-04-01T03:51:09;99797.72;;;7.91;80.73
30516;BME280;17297;54.022;10.760;2023-04-01T03:53:36;99793.66;;;7.95;80.58
30516;BME280;17297;54.022;10.760;2023-04-01T03:56:07;99786.00;;;7.92;80.60
30516;BME280;17297;54.022;10.760;2023-04-01T03:58:35;99791.50;;;7.83;80.72
30516;BME280;17297;54.022;10.760;2023-04-01T04:01:02;99804.91;;;7.83;80.98
30516;BME280;17297;54.022;10.760;2023-04-01T04:03:28;99813.16;;;7.82;81.02
30516;BME280;17297;54.022;10.760;2023-04-01T04:05:54;99821.97;;;7.76;81.11
30516;BME280;17297;54.022;10.760;2023-04-01T04:08:21;99821.97;;;7.76;80.91
30516;BME280;17297;54.022;10.760;2023-04-01T04:10:47;99814.91;;;7.68;81.16
30516;BME280;17297;54.022;10.760;2023-04-01T04:13:13;99821.69;;;7.64;81.28
30516;BME280;17297;54.022;10.760;2023-04-01T04:15:46;99824.00;;;7.74;80.98
30516;BME280;17297;54.022;10.760;2023-04-01T04:18:12;99834.84;;;7.66;81.25
30516;BME280;17297;54.022;10.760;2023-04-01T04:20:44;99837.16;;;7.69;81.18
30516;BME280;17297;54.022;10.760;2023-04-01T04:23:10;99829.91;;;7.62;81.38
30516;BME280;17297;54.022;10.760;2023-04-01T04:25:36;99828.28;;;7.68;81.33
30516;BME280;17297;54.022;10.760;2023-04-01T04:28:01;99835.63;;;7.59;81.29
30516;BME280;17297;54.022;10.760;2023-04-01T04:30:27;99833.75;;;7.53;81.53
30516;BME280;17297;54.022;10.760;2023-04-01T04:32:52;99849.22;;;7.58;81.49
30516;BME280;17297;54.022;10.760;2023-04-01T04:35:18;99844.56;;;7.67;81.20
30516;BME280;17297;54.022;10.760;2023-04-01T04:37:44;99851.31;;;7.62;81.16
30516;BME280;17297;54.022;10.760;2023-04-01T04:40:10;99848.81;;;7.54;81.07
30516;BME280;17297;54.022;10.760;2023-04-01T04:42:35;99850.63;;;7.54;81.44
30516;BME280;17297;54.022;10.760;2023-04-01T04:45:06;99852.03;;;7.50;81.25
30516;BME280;17297;54.022;10.760;2023-04-01T04:47:31;99862.31;;;7.46;81.45
30516;BME280;17297;54.022;10.760;2023-04-01T04:49:57;99859.25;;;7.49;81.29
30516;BME280;17297;54.022;10.760;2023-04-01T04:52:22;99856.53;;;7.43;81.65
30516;BME280;17297;54.022;10.760;2023-04-01T04:54:47;99897.44;;;7.36;81.73
30516;BME280;17297;54.022;10.760;2023-04-01T04:57:13;99881.34;;;7.30;81.75
30516;BME280;17297;54.022;10.760;2023-04-01T04:59:44;99880.91;;;7.26;81.88
30516;BME280;17297;54.022;10.760;2023-04-01T05:02:21;99876.53;;;7.25;81.86
30516;BME280;17297;54.022;10.760;2023-04-01T05:04:46;99873.47;;;7.28;81.76
30516;BME280;17297;54.022;10.760;2023-04-01T05:07:12;99890.69;;;7.19;82.23
30516;BME280;17297;54.022;10.760;2023-04-01T05:09:37;99884.84;;;7.30;81.89
30516;BME280;17297;54.022;10.760;2023-04-01T05:12:03;99907.44;;;7.28;81.74
30516;BME280;17297;54.022;10.760;2023-04-01T05:14:44;99896.94;;;7.26;82.05
30516;BME280;17297;54.022;10.760;2023-04-01T05:17:10;99902.84;;;7.22;82.07
30516;BME280;17297;54.022;10.760;2023-04-01T05:19:36;99898.59;;;7.27;81.92
30516;BME280;17297;54.022;10.760;2023-04-01T05:22:01;99896.63;;;7.14;82.43
30516;BME280;17297;54.022;10.760;2023-04-01T05:24:28;99906.69;;;7.12;82.44
30516;BME280;17297;54.022;10.760;2023-04-01T05:26:53;99920.19;;;7.04;82.69
30516;BME280;17297;54.022;10.760;2023-04-01T05:29:19;99916.50;;;7.05;82.58
30516;BME280;17297;54.022;10.760;2023-04-01T05:31:48;99927.91;;;7.14;82.46
30516;BME280;17297;54.022;10.760;2023-04-01T05:34:13;99911.25;;;7.18;82.25
30516;BME280;17297;54.022;10.760;2023-04-01T05:36:38;99920.31;;;7.17;82.18
30516;BME280;17297;54.022;10.760;2023-04-01T05:39:05;99934.25;;;7.13;82.34
30516;BME280;17297;54.022;10.760;2023-04-01T05:41:34;99952.41;;;7.17;82.11
30516;BME280;17297;54.022;10.760;2023-04-01T05:44:00;99926.03;;;7.14;82.17
30516;BME280;17297;54.022;10.760;2023-04-01T05:46:41;99930.38;;;7.15;82.18
30516;BME280;17297;54.022;10.760;2023-04-01T05:49:16;99941.22;;;7.07;82.15
30516;BME280;17297;54.022;10.760;2023-04-01T05:51:41;99946.25;;;7.17;82.22
30516;BME280;17297;54.022;10.760;2023-04-01T05:54:07;99950.84;;;7.23;81.67
30516;BME280;17297;54.022;10.760;2023-04-01T05:56:32;99950.19;;;7.21;81.63
30516;BME280;17297;54.022;10.760;2023-04-01T05:58:59;99962.66;;;7.14;81.76
30516;BME280;17297;54.022;10.760;2023-04-01T06:01:24;99961.53;;;7.23;81.64
30516;BME280;17297;54.022;10.760;2023-04-01T06:03:49;99957.81;;;7.24;81.83
30516;BME280;17297;54.022;10.760;2023-04-01T06:06:23;99970.13;;;7.18;81.85
30516;BME280;17297;54.022;10.760;2023-04-01T06:08:49;99955.31;;;7.23;81.87
30516;BME280;17297;54.022;10.760;2023-04-01T06:11:31;99963.19;;;7.24;81.74
30516;BME280;17297;54.022;10.760;2023-04-01T06:14:39;99979.69;;;7.28;81.65
30516;BME280;17297;54.022;10.760;2023-04-01T06:17:32;99974.56;;;7.11;81.86
30516;BME280;17297;54.022;10.760;2023-04-01T06:20:46;99975.97;;;7.07;81.83
30516;BME280;17297;54.022;10.760;2023-04-01T06:31:32;99993.25;;;6.90;82.49
30516;BME280;17297;54.022;10.760;2023-04-01T06:51:54;100022.94;;;6.80;82.79
30516;BME280;17297;54.022;10.760;2023-04-01T06:54:30;100027.47;;;6.80;82.63
30516;BME280;17297;54.022;10.760;2023-04-01T06:57:51;100026.28;;;6.82;82.66
30516;BME280;17297;54.022;10.760;2023-04-01T07:00:31;100036.78;;;6.84;82.92
30516;BME280;17297;54.022;10.760;2023-04-01T07:06:05;100041.28;;;6.83;82.90
30516;BME280;17297;54.022;10.760;2023-04-01T07:08:41;100048.19;;;6.78;82.89
30516;BME280;17297;54.022;10.760;2023-04-01T07:11:24;100050.72;;;6.79;82.99
30516;BME280;17297;54.022;10.760;2023-04-01T07:14:51;100049.03;;;6.78;83.26
30516;BME280;17297;54.022;10.760;2023-04-01T07:17:19;100059.09;;;6.76;83.25
30516;BME280;17297;54.022;10.760;2023-04-01T07:19:56;100060.09;;;6.75;83.21
30516;BME280;17297;54.022;10.760;2023-04-01T07:22:40;100063.72;;;6.82;83.05
30516;BME280;17297;54.022;10.760;2023-04-01T07:25:20;100069.41;;;6.79;83.18
30516;BME280;17297;54.022;10.760;2023-04-01T07:28:00;100084.88;;;6.69;83.38
30516;BME280;17297;54.022;10.760;2023-04-01T07:30:29;100096.88;;;6.73;83.27
30516;BME280;17297;54.022;10.760;2023-04-01T07:33:08;100080.72;;;6.66;83.35
30516;BME280;17297;54.022;10.760;2023-04-01T07:35:43;100082.31;;;6.61;83.07
30516;BME280;17297;54.022;10.760;2023-04-01T07:38:21;100093.63;;;6.63;83.73
30516;BME280;17297;54.022;10.760;2023-04-01T07:52:50;100108.31;;;6.67;83.34
30516;BME280;17297;54.022;10.760;2023-04-01T07:55:30;100116.78;;;6.70;83.15
30516;BME280;17297;54.022;10.760;2023-04-01T08:09:21;100124.16;;;6.68;83.51
30516;BME280;17297;54.022;10.760;2023-04-01T08:12:40;100144.78;;;6.60;83.39
30516;BME280;17297;54.022;10.760;2023-04-01T08:15:47;100138.97;;;6.56;83.35
30516;BME280;17297;54.022;10.760;2023-04-01T08:18:46;100130.31;;;6.54;83.38
30516;BME280;17297;54.022;10.760;2023-04-01T08:21:32;100146.81;;;6.58;83.52
30516;BME280;17297;54.022;10.760;2023-04-01T08:24:11;100133.16;;;6.53;83.26
30516;BME280;17297;54.022;10.760;2023-04-01T08:26:45;100147.19;;;6.55;83.38
30516;BME280;17297;54.022;10.760;2023-04-01T08:29:14;100160.66;;;6.61;83.09
30516;BME280;17297;54.022;10.760;2023-04-01T08:31:47;100170.78;;;6.66;83.14
30516;BME280;17297;54.022;10.760;2023-04-01T08:34:32;100158.13;;;6.60;82.99
30516;BME280;17297;54.022;10.760;2023-04-01T08:37:14;100149.31;;;6.59;82.86
30516;BME280;17297;54.022;10.760;2023-04-01T08:39:59;100172.69;;;6.57;83.03
30516;BME280;17297;54.022;10.760;2023-04-01T08:43:05;100181.81;;;6.48;83.49
30516;BME280;17297;54.022;10.760;2023-04-01T08:45:44;100172.38;;;6.37;83.76
30516;BME280;17297;54.022;10.760;2023-04-01T08:48:33;100178.84;;;6.43;83.97
30516;BME280;17297;54.022;10.760;2023-04-01T08:51:22;100174.63;;;6.48;83.57
30516;BME280;17297;54.022;10.760;2023-04-01T08:54:12;100206.59;;;6.42;83.66
30516;BME280;17297;54.022;10.760;2023-04-01T08:56:53;100163.47;;;6.45;83.64
30516;BME280;17297;54.022;10.760;2023-04-01T08:59:34;100189.91;;;6.40;83.56
30516;BME280;17297;54.022;10.760;2023-04-01T09:02:37;100199.63;;;6.33;83.68
30516;BME280;17297;54.022;10.760;2023-04-01T09:08:27;100196.78;;;6.34;84.05
30516;BME280;17297;54.022;10.760;2023-04-01T09:20:42;100217.13;;;6.35;83.80
30516;BME280;17297;54.022;10.760;2023-04-01T09:23:33;100216.84;;;6.30;83.61
30516;BME280;17297;54.022;10.760;2023-04-01T09:34:53;100234.88;;;6.28;84.13
30516;BME280;17297;54.022;10.760;2023-04-01T09:37:35;100240.53;;;6.33;83.69
30516;BME280;17297;54.022;10.760;2023-04-01T09:40:16;100238.09;;;6.23;83.74
30516;BME280;17297;54.022;10.760;2023-04-01T09:46:06;100254.97;;;6.24;83.75
30516;BME280;17297;54.022;10.760;2023-04-01T09:49:41;100259.34;;;6.17;83.70
30516;BME280;17297;54.022;10.760;2023-04-01T09:51:54;100262.22;;;6.07;83.88
30516;BME280;17297;54.022;10.760;2023-04-01T10:06:06;100282.59;;;6.08;83.67
30516;BME280;17297;54.022;10.760;2023-04-01T10:14:26;100311.31;;;6.06;83.40
30516;BME280;17297;54.022;10.760;2023-04-01T10:24:56;100319.66;;;6.03;82.94
30516;BME280;17297;54.022;10.760;2023-04-01T10:47:44;100343.19;;;6.08;82.38
30516;BME280;17297;54.022;10.760;2023-04-01T10:50:25;100353.34;;;6.04;82.49
30516;BME280;17297;54.022;10.760;2023-04-01T10:56:46;100345.78;;;6.24;81.80
30516;BME280;17297;54.022;10.760;2023-04-01T11:03:46;100350.66;;;6.12;81.97
30516;BME280;17297;54.022;10.760;2023-04-01T11:12:34;100383.94;;;6.01;81.53
30516;BME280;17297;54.022;10.760;2023-04-01T11:15:20;100389.22;;;6.10;81.33
30516;BME280;17297;54.022;10.760;2023-04-01T11:18:17;100370.19;;;6.13;81.30
30516;BME280;17297;54.022;10.760;2023-04-01T11:21:15;100387.38;;;6.10;80.57
30516;BME280;17297;54.022;10.760;2023-04-01T11:27:07;100393.59;;;6.03;81.35
30516;BME280;17297;54.022;10.760;2023-04-01T11:35:26;100415.25;;;6.16;80.68
30516;BME280;17297;54.022;10.760;2023-04-01T11:40:57;100407.44;;;6.06;80.52
30516;BME280;17297;54.022;10.760;2023-04-01T11:44:20;100419.97;;;5.89;80.91
30516;BME280;17297;54.022;10.760;2023-04-01T11:47:13;100438.66;;;5.97;80.39
30516;BME280;17297;54.022;10.760;2023-04-01T11:52:55;100423.66;;;6.05;80.72
30516;BME280;17297;54.022;10.760;2023-04-01T11:58:47;100435.44;;;6.18;80.15
30516;BME280;17297;54.022;10.760;2023-04-01T12:01:36;100430.94;;;6.19;79.70
30516;BME280;17297;54.022;10.760;2023-04-01T12:04:29;100457.50;;;6.04;80.20
30516;BME280;17297;54.022;10.760;2023-04-01T12:10:00;100455.34;;;6.08;80.23
30516;BME280;17297;54.022;10.760;2023-04-01T12:12:57;100459.00;;;6.15;80.00
30516;BME280;17297;54.022;10.760;2023-04-01T12:15:33;100477.19;;;6.11;79.97
30516;BME280;17297;54.022;10.760;2023-04-01T12:18:35;100474.72;;;6.01;79.79
30516;BME280;17297;54.022;10.760;2023-04-01T12:24:22;100485.03;;;6.13;80.13
30516;BME280;17297;54.022;10.760;2023-04-01T12:27:11;100487.06;;;6.11;79.44
30516;BME280;17297;54.022;10.760;2023-04-01T12:33:10;100489.72;;;6.03;79.45
30516;BME280;17297;54.022;10.760;2023-04-01T12:38:47;100483.38;;;6.04;79.48
30516;BME280;17297;54.022;10.760;2023-04-01T12:41:23;100490.72;;;6.10;79.13
30516;BME280;17297;54.022;10.760;2023-04-01T12:49:27;100520.75;;;6.20;79.12
30516;BME280;17297;54.022;10.760;2023-04-01T12:52:04;100517.56;;;6.24;79.43
30516;BME280;17297;54.022;10.760;2023-04-01T12:57:22;100527.75;;;6.21;78.96
30516;BME280;17297;54.022;10.760;2023-04-01T13:00:11;100529.75;;;6.19;79.15
30516;BME280;17297;54.022;10.760;2023-04-01T13:09:00;100554.97;;;6.16;79.63
30516;BME280;17297;54.022;10.760;2023-04-01T13:11:42;100562.19;;;6.08;79.40
30516;BME280;17297;54.022;10.760;2023-04-01T13:19:42;100552.97;;;6.27;79.09
30516;BME280;17297;54.022;10.760;2023-04-01T13:22:11;100569.50;;;6.30;78.52
30516;BME280;17297;54.022;10.760;2023-04-01T13:24:45;100584.34;;;6.24;79.16
30516;BME280;17297;54.022;10.760;2023-04-01T13:27:37;100575.50;;;6.24;78.92
30516;BME280;17297;54.022;10.760;2023-04-01T13:30:23;100578.47;;;6.29;78.34
30516;BME280;17297;54.022;10.760;2023-04-01T13:36:08;100582.34;;;6.10;78.41
30516;BME280;17297;54.022;10.760;2023-04-01T13:44:15;100585.03;;;6.18;78.85
30516;BME280;17297;54.022;10.760;2023-04-01T13:52:40;100600.72;;;6.30;78.19
30516;BME280;17297;54.022;10.760;2023-04-01T14:00:58;100640.78;;;6.13;78.59
30516;BME280;17297;54.022;10.760;2023-04-01T14:03:50;100617.94;;;6.11;78.03
30516;BME280;17297;54.022;10.760;2023-04-01T14:14:41;100628.78;;;6.17;78.14
30516;BME280;17297;54.022;10.760;2023-04-01T14:17:30;100640.09;;;6.03;78.01
30516;BME280;17297;54.022;10.760;2023-04-01T14:20:36;100631.25;;;6.03;77.53
30516;BME280;17297;54.022;10.760;2023-04-01T14:26:09;100658.97;;;6.10;77.26
30516;BME280;17297;54.022;10.760;2023-04-01T14:28:58;100657.28;;;6.00;77.41
30516;BME280;17297;54.022;10.760;2023-04-01T14:31:39;100657.78;;;6.04;77.71
30516;BME280;17297;54.022;10.760;2023-04-01T14:43:04;100678.84;;;5.99;76.47
30516;BME280;17297;54.022;10.760;2023-04-01T14:51:15;100683.28;;;5.90;76.89
30516;BME280;17297;54.022;10.760;2023-04-01T14:56:40;100691.28;;;5.90;77.41
30516;BME280;17297;54.022;10.760;2023-04-01T15:10:10;100712.84;;;5.89;76.65
30516;BME280;17297;54.022;10.760;2023-04-01T15:18:07;100753.69;;;5.81;76.48
30516;BME280;17297;54.022;10.760;2023-04-01T15:34:00;100760.41;;;5.93;75.61
30516;BME280;17297;54.022;10.760;2023-04-01T15:36:33;100770.56;;;5.90;75.53
30516;BME280;17297;54.022;10.760;2023-04-01T15:39:14;100765.22;;;5.90;74.97
30516;BME280;17297;54.022;10.760;2023-04-01T15:41:56;100768.03;;;5.88;75.88
30516;BME280;17297;54.022;10.760;2023-04-01T15:44:52;100779.94;;;5.94;75.07
30516;BME280;17297;54.022;10.760;2023-04-01T15:49:57;100790.25;;;5.89;75.13
30516;BME280;17297;54.022;10.760;2023-04-01T15:55:22;100785.88;;;5.79;74.84
30516;BME280;17297;54.022;10.760;2023-04-01T15:58:27;100813.75;;;5.85;74.93
30516;BME280;17297;54.022;10.760;2023-04-01T16:01:16;100791.00;;;5.73;74.71
30516;BME280;17297;54.022;10.760;2023-04-01T16:06:48;100835.41;;;5.74;73.81
30516;BME280;17297;54.022;10.760;2023-04-01T16:15:11;100822.53;;;5.69;73.92
30516;BME280;17297;54.022;10.760;2023-04-01T16:17:55;100842.31;;;5.59;73.80
30516;BME280;17297;54.022;10.760;2023-04-01T16:26:02;100839.69;;;5.67;73.87
30516;BME280;17297;54.022;10.760;2023-04-01T16:28:34;100851.84;;;5.61;74.11
30516;BME280;17297;54.022;10.760;2023-04-01T16:39:27;100825.19;;;5.69;74.30
30516;BME280;17297;54.022;10.760;2023-04-01T16:44:44;100883.66;;;5.81;74.27
30516;BME280;17297;54.022;10.760;2023-04-01T16:47:17;100882.31;;;5.76;73.82
30516;BME280;17297;54.022;10.760;2023-04-01T16:49:51;100884.28;;;5.74;74.28
30516;BME280;17297;54.022;10.760;2023-04-01T16:55:34;100889.09;;;5.71;73.81
30516;BME280;17297;54.022;10.760;2023-04-01T16:58:00;100891.28;;;5.75;73.14
30516;BME280;17297;54.022;10.760;2023-04-01T17:00:49;100894.66;;;5.77;73.12
30516;BME280;17297;54.022;10.760;2023-04-01T17:03:40;100929.97;;;5.71;72.74
30516;BME280;17297;54.022;10.760;2023-04-01T17:12:24;100937.56;;;5.58;72.12
30516;BME280;17297;54.022;10.760;2023-04-01T17:14:54;100941.81;;;5.69;72.14
30516;BME280;17297;54.022;10.760;2023-04-01T17:17:30;100942.19;;;5.74;72.99
30516;BME280;17297;54.022;10.760;2023-04-01T17:20:32;100947.94;;;5.61;72.49
30516;BME280;17297;54.022;10.760;2023-04-01T17:23:33;100952.72;;;5.57;71.24
30516;BME280;17297;54.022;10.760;2023-04-01T17:31:53;100985.31;;;5.61;71.99
30516;BME280;17297;54.022;10.760;2023-04-01T17:37:29;100986.53;;;5.49;69.71
30516;BME280;17297;54.022;10.760;2023-04-01T17:40:30;101018.38;;;5.32;69.41
30516;BME280;17297;54.022;10.760;2023-04-01T17:45:53;100996.38;;;5.30;69.19
30516;BME280;17297;54.022;10.760;2023-04-01T17:51:38;101019.38;;;5.49;69.90
30516;BME280;17297;54.022;10.760;2023-04-01T17:54:21;101025.63;;;5.40;70.20
30516;BME280;17297;54.022;10.760;2023-04-01T17:59:47;101041.25;;;5.35;68.04
30516;BME280;17297;54.022;10.760;2023-04-01T18:02:24;101039.44;;;5.53;69.78
30516;BME280;17297;54.022;10.760;2023-04-01T18:08:12;101059.81;;;5.54;68.81
30516;BME280;17297;54.022;10.760;2023-04-01T18:21:49;101097.16;;;5.37;68.65
30516;BME280;17297;54.022;10.760;2023-04-01T18:24:24;101085.94;;;5.33;68.30
30516;BME280;17297;54.022;10.760;2023-04-01T18:30:07;101113.34;;;5.25;68.29
30516;BME280;17297;54.022;10.760;2023-04-01T18:33:19;101129.34;;;5.25;67.90
30516;BME280;17297;54.022;10.760;2023-04-01T18:38:47;101132.47;;;5.21;67.91
30516;BME280;17297;54.022;10.760;2023-04-01T18:41:26;101126.63;;;5.17;68.00
30516;BME280;17297;54.022;10.760;2023-04-01T18:44:05;101145.28;;;5.17;68.07
30516;BME280;17297;54.022;10.760;2023-04-01T18:52:36;101161.53;;;5.24;68.15
30516;BME280;17297;54.022;10.760;2023-04-01T18:57:49;101170.13;;;5.18;68.17
30516;BME280;17297;54.022;10.760;2023-04-01T19:00:27;101150.03;;;5.23;68.30
30516;BME280;17297;54.022;10.760;2023-04-01T19:03:20;101154.50;;;5.23;68.10
30516;BME280;17297;54.022;10.760;2023-04-01T19:05:50;101158.84;;;5.24;67.89
30516;BME280;17297;54.022;10.760;2023-04-01T19:08:31;101183.00;;;5.22;67.70
30516;BME280;17297;54.022;10.760;2023-04-01T19:16:05;101182.63;;;5.17;68.03
30516;BME280;17297;54.022;10.760;2023-04-01T19:19:01;101171.25;;;5.15;68.11
30516;BME280;17297;54.022;10.760;2023-04-01T19:21:35;101191.25;;;5.29;68.71
30516;BME280;17297;54.022;10.760;2023-04-01T19:29:30;101249.09;;;5.28;68.07
30516;BME280;17297;54.022;10.760;2023-04-01T19:32:14;101209.91;;;5.29;68.21
30516;BME280;17297;54.022;10.760;2023-04-01T19:37:11;101217.38;;;5.25;68.28
30516;BME280;17297;54.022;10.760;2023-04-01T19:39:58;101224.66;;;5.33;68.80
30516;BME280;17297;54.022;10.760;2023-04-01T19:42:51;101246.44;;;5.28;68.09
30516;BME280;17297;54.022;10.760;2023-04-01T19:45:38;101244.47;;;5.30;68.06
30516;BME280;17297;54.022;10.760;2023-04-01T19:48:37;101241.50;;;5.33;68.13
30516;BME280;17297;54.022;10.760;2023-04-01T19:51:17;101266.34;;;5.34;68.29
30516;BME280;17297;54.022;10.760;2023-04-01T19:54:10;101244.91;;;5.26;67.35
30516;BME280;17297;54.022;10.760;2023-04-01T19:56:57;101262.44;;;5.28;67.99
30516;BME280;17297;54.022;10.760;2023-04-01T19:59:31;101259.22;;;5.25;67.14
30516;BME280;17297;54.022;10.760;2023-04-01T20:04:52;101258.78;;;5.29;66.66
30516;BME280;17297;54.022;10.760;2023-04-01T20:12:47;101276.34;;;5.22;67.08